Time;durP1;ratioP1;P1;durP2;ratioP2;P2;SDS_P1;SDS_P2;PMS_P1;PMS_P2;Temp;Humidity;BMP_temperature;BMP_pressure;BME280_temperature;BME280_humidity;BME280_pressure;Samples;Min_cycle;Max_cycle;Signal;HPM_P1;HPM_P2
2023/02/18 00:01:25;;;;;;;6.10;1.70;;;;;;;7.59;86.73;100990.91;5200498;28;20021;-70
2023/02/18 00:03:56;;;;;;;6.93;0.98;;;;;;;7.51;87.37;100989.31;5201347;28;20383;-71
2023/02/18 00:06:29;;;;;;;8.02;1.33;;;;;;;7.61;87.11;100986.53;5200415;28;20103;-71
2023/02/18 00:09:03;;;;;;;9.85;1.52;;;;;;;7.62;86.67;100971.75;5200716;28;20026;-71
2023/02/18 00:11:34;;;;;;;11.35;1.85;;;;;;;7.48;87.78;100974.59;5200854;28;20110;-71
2023/02/18 00:14:10;;;;;;;11.13;1.52;;;;;;;7.47;87.74;100967.69;5200541;28;20033;-72
2023/02/18 00:16:41;;;;;;;13.75;1.75;;;;;;;7.41;87.70;100966.94;5200378;28;20033;-72
2023/02/18 00:19:15;;;;;;;8.52;1.75;;;;;;;7.45;87.83;100964.25;5200124;28;20546;-71
2023/02/18 00:21:45;;;;;;;12.43;1.60;;;;;;;7.49;88.85;100954.69;5200476;28;20115;-72
2023/02/18 00:24:16;;;;;;;9.48;1.30;;;;;;;7.44;88.49;100957.34;5200257;28;20064;-71
2023/02/18 00:26:51;;;;;;;9.90;1.52;;;;;;;7.31;88.78;100950.63;5199313;28;20033;-70
2023/02/18 00:29:22;;;;;;;10.95;1.40;;;;;;;7.25;89.44;100957.66;5200386;28;20026;-72
2023/02/18 00:31:52;;;;;;;8.32;1.50;;;;;;;7.28;89.18;100953.28;5200497;28;20033;-72
2023/02/18 00:34:22;;;;;;;10.82;1.55;;;;;;;7.34;89.49;100953.19;5189545;28;20030;-70
2023/02/18 00:36:53;;;;;;;6.97;1.30;;;;;;;7.33;90.05;100958.41;5199769;28;20495;-71
2023/02/18 00:39:23;;;;;;;8.85;1.40;;;;;;;7.29;90.24;100960.19;5199598;28;20044;-71
2023/02/18 00:41:53;;;;;;;7.53;1.27;;;;;;;7.25;89.30;100962.03;5200811;28;20057;-71
2023/02/18 00:44:23;;;;;;;8.05;1.45;;;;;;;7.26;89.42;100954.19;5199808;28;20052;-70
2023/02/18 00:46:54;;;;;;;8.40;1.65;;;;;;;7.30;90.32;100943.72;5198721;28;20527;-71
2023/02/18 00:49:24;;;;;;;12.25;1.55;;;;;;;7.24;89.66;100950.75;5198110;28;20052;-70
2023/02/18 00:51:54;;;;;;;11.23;1.40;;;;;;;7.29;89.81;100957.59;5200398;28;20033;-71
2023/02/18 00:54:25;;;;;;;6.90;1.40;;;;;;;7.25;90.12;100959.44;5200183;28;20387;-70
2023/02/18 00:56:55;;;;;;;9.10;1.40;;;;;;;7.27;89.53;100963.69;5190696;28;20116;-71
2023/02/18 00:59:25;;;;;;;10.10;1.30;;;;;;;7.31;89.78;100961.03;5189935;28;20438;-71
2023/02/18 01:01:55;;;;;;;6.85;1.00;;;;;;;7.30;90.67;100967.13;5200394;28;20594;-71
2023/02/18 01:04:26;;;;;;;7.57;1.10;;;;;;;7.19;89.84;100969.91;5199058;28;20059;-72
2023/02/18 01:06:56;;;;;;;8.85;1.33;;;;;;;7.26;90.24;100971.53;5188861;28;20514;-72
2023/02/18 01:09:26;;;;;;;10.05;1.42;;;;;;;7.26;90.67;100964.56;5198534;28;20036;-72
2023/02/18 01:11:57;;;;;;;7.13;1.42;;;;;;;7.17;90.36;100967.34;5199556;28;20459;-71
2023/02/18 01:14:27;;;;;;;11.98;1.80;;;;;;;7.18;89.74;100976.84;5198984;28;20240;-71
2023/02/18 01:16:57;;;;;;;6.63;1.13;;;;;;;7.03;91.19;100969.28;5198580;28;20033;-71
2023/02/18 01:19:28;;;;;;;10.70;1.65;;;;;;;7.16;90.77;100968.22;5199717;28;20442;-71
2023/02/18 01:21:58;;;;;;;8.13;1.48;;;;;;;7.14;90.56;100966.53;5198512;28;20388;-71
2023/02/18 01:24:28;;;;;;;8.48;1.60;;;;;;;7.10;91.03;100965.69;5200042;28;20030;-70
2023/02/18 01:26:59;;;;;;;9.13;1.25;;;;;;;7.19;91.08;100967.31;5191020;28;20376;-71
2023/02/18 01:29:29;;;;;;;9.20;1.45;;;;;;;7.21;90.35;100957.72;5200719;28;20459;-71
2023/02/18 01:31:59;;;;;;;5.18;1.00;;;;;;;7.26;90.26;100961.13;5198661;28;20041;-72
2023/02/18 01:34:30;;;;;;;9.48;1.40;;;;;;;7.28;90.53;100956.78;5201363;28;20025;-71
2023/02/18 01:37:00;;;;;;;9.63;1.80;;;;;;;7.28;90.33;100952.41;5195513;28;20033;-73
2023/02/18 01:39:30;;;;;;;10.13;1.60;;;;;;;7.39;91.02;100950.50;5199447;28;20049;-72
2023/02/18 01:42:01;;;;;;;8.18;1.30;;;;;;;7.38;90.48;100956.59;5190313;28;20029;-72
2023/02/18 01:44:33;;;;;;;9.77;1.38;;;;;;;7.49;90.58;100945.13;5196550;28;20037;-71
2023/02/18 01:47:03;;;;;;;11.18;1.52;;;;;;;7.54;90.27;100953.69;5197771;28;20021;-71
2023/02/18 01:49:35;;;;;;;7.68;1.20;;;;;;;7.49;90.37;100950.31;5198847;28;20107;-71
2023/02/18 01:52:15;;;;;;;11.48;1.42;;;;;;;7.48;90.88;100953.81;5199394;28;20624;-71
2023/02/18 01:54:49;;;;;;;8.60;1.10;;;;;;;7.55;90.44;100952.81;5195254;28;20029;-71
2023/02/18 01:57:23;;;;;;;11.30;1.55;;;;;;;7.54;90.11;100951.09;5198846;28;20475;-72
2023/02/18 01:59:57;;;;;;;7.20;1.20;;;;;;;7.59;90.66;100943.22;5198436;28;20044;-71
2023/02/18 02:02:28;;;;;;;11.15;1.95;;;;;;;7.49;90.67;100950.31;5199780;28;20064;-72
2023/02/18 02:04:58;;;;;;;7.13;1.20;;;;;;;7.46;90.66;100950.38;5189133;28;20530;-71
2023/02/18 02:07:29;;;;;;;8.70;1.60;;;;;;;7.45;91.42;100933.06;5203784;28;20059;-71
2023/02/18 02:10:00;;;;;;;8.15;1.10;;;;;;;7.51;91.17;100932.94;5197670;28;20033;-71
2023/02/18 02:12:54;;;;;;;5.07;1.05;;;;;;;7.48;90.86;100927.81;5198793;28;20052;-72
2023/02/18 02:15:59;;;;;;;8.98;1.33;;;;;;;7.55;90.93;100939.81;5196612;28;20040;-71
2023/02/18 02:19:02;;;;;;;9.10;1.60;;;;;;;7.57;90.63;100931.97;5173898;28;20045;-72
2023/02/18 02:21:38;;;;;;;8.57;1.42;;;;;;;7.53;91.12;100941.56;5147092;28;20057;-71
2023/02/18 02:24:37;;;;;;;10.18;1.35;;;;;;;7.50;90.84;100933.00;5198655;28;20021;-71
2023/02/18 02:27:14;;;;;;;12.05;1.48;;;;;;;7.48;91.86;100924.31;5232405;23;20377;-79
2023/02/18 02:30:06;;;;;;;6.68;1.20;;;;;;;7.49;91.77;100926.06;5215090;28;20027;-79
2023/02/18 02:32:54;;;;;;;9.30;1.40;;;;;;;7.42;91.49;100922.72;5218333;28;20032;-79
2023/02/18 02:35:34;;;;;;;7.10;1.10;;;;;;;7.43;91.83;100932.22;5219040;28;20560;-78
2023/02/18 02:38:25;;;;;;;12.50;1.67;;;;;;;7.56;91.33;100925.91;5218142;28;20032;-78
2023/02/18 02:41:02;;;;;;;9.07;1.42;;;;;;;7.50;91.12;100917.38;5217249;28;20021;-78
2023/02/18 02:43:55;;;;;;;5.70;1.33;;;;;;;7.41;91.60;100926.22;5219906;28;20040;-77
2023/02/18 02:46:40;;;;;;;6.35;1.60;;;;;;;7.56;90.79;100931.13;5219940;28;20082;-78
2023/02/18 02:49:25;;;;;;;7.07;1.30;;;;;;;7.49;91.53;100929.53;5220194;28;20028;-77
2023/02/18 02:51:58;;;;;;;7.05;1.35;;;;;;;7.47;92.10;100935.63;5217731;28;20029;-79
2023/02/18 02:54:29;;;;;;;7.38;1.00;;;;;;;7.47;92.08;100930.41;5219491;28;20021;-78
2023/02/18 02:57:29;;;;;;;7.78;1.10;;;;;;;7.48;91.95;100922.59;5215825;28;20340;-79
2023/02/18 03:00:08;;;;;;;5.97;1.27;;;;;;;7.55;91.78;100924.19;5218500;28;20037;-79
2023/02/18 03:03:09;;;;;;;9.02;1.20;;;;;;;7.59;91.88;100925.88;5220069;28;20029;-78
2023/02/18 03:06:07;;;;;;;5.47;1.02;;;;;;;7.46;92.52;100921.78;5219155;28;20017;-79
2023/02/18 03:08:53;;;;;;;10.70;1.42;;;;;;;7.52;92.20;100916.47;5219023;28;20027;-79
2023/02/18 03:11:23;;;;;;;;;;;;;;;7.53;92.26;100909.53;5219199;28;20025;-78
2023/02/18 03:14:09;;;;;;;8.63;1.40;;;;;;;7.39;92.94;100907.16;5224498;28;19924;-78
2023/02/18 03:16:50;;;;;;;7.93;1.30;;;;;;;7.48;93.17;100912.19;5221993;28;20618;-78
2023/02/18 03:19:38;;;;;;;8.02;1.23;;;;;;;7.56;92.67;100902.50;5220803;28;20056;-79
2023/02/18 03:22:27;;;;;;;12.55;1.77;;;;;;;7.62;92.80;100902.41;5223094;28;20029;-78
2023/02/18 03:24:59;;;;;;;11.43;1.70;;;;;;;7.58;93.49;100900.75;5215735;28;20576;-78
2023/02/18 03:27:33;;;;;;;10.55;1.40;;;;;;;7.64;93.31;100903.25;5223085;28;20490;-77
2023/02/18 03:30:12;;;;;;;10.02;1.63;;;;;;;7.82;93.40;100892.47;5221983;28;20024;-79
2023/02/18 03:32:44;;;;;;;11.70;1.50;;;;;;;7.78;93.27;100896.03;5217106;28;20024;-78
2023/02/18 03:35:17;;;;;;;7.88;1.50;;;;;;;7.74;93.80;100894.34;5221474;28;20036;-79
2023/02/18 03:37:59;;;;;;;6.13;1.20;;;;;;;7.79;94.24;100884.75;5222672;28;20179;-78
2023/02/18 03:40:30;;;;;;;10.35;1.38;;;;;;;7.91;94.96;100887.09;5223743;28;20040;-78
2023/02/18 03:43:01;;;;;;;11.88;1.73;;;;;;;7.85;95.24;100882.00;5221843;28;20048;-78
2023/02/18 03:45:31;;;;;;;13.55;2.25;;;;;;;7.90;95.55;100869.75;5222027;28;20025;-78
2023/02/18 03:48:01;;;;;;;10.77;1.85;;;;;;;7.82;96.93;100871.66;5221440;28;20058;-79
2023/02/18 03:50:32;;;;;;;10.88;2.00;;;;;;;7.90;96.66;100871.53;5222471;28;20063;-78
2023/02/18 03:53:02;;;;;;;7.95;2.00;;;;;;;7.87;96.85;100867.22;5221388;28;20029;-78
2023/02/18 03:55:32;;;;;;;9.43;1.83;;;;;;;8.00;96.90;100871.31;5222748;28;20060;-78
2023/02/18 03:58:03;;;;;;;11.52;1.88;;;;;;;7.93;97.85;100869.72;5221159;28;20110;-79
2023/02/18 04:00:33;;;;;;;10.18;1.75;;;;;;;7.92;97.77;100867.13;5222357;28;20390;-78
2023/02/18 04:03:03;;;;;;;10.38;2.17;;;;;;;7.92;98.13;100869.75;5223516;28;20029;-79
2023/02/18 04:05:34;;;;;;;9.88;2.45;;;;;;;8.08;97.28;100869.38;5222493;28;20040;-79
2023/02/18 04:08:05;;;;;;;10.38;2.00;;;;;;;8.10;97.04;100872.84;5222687;28;20016;-78
2023/02/18 04:10:35;;;;;;;10.90;1.80;;;;;;;8.15;96.62;100855.38;5222692;28;20036;-79
2023/02/18 04:13:05;;;;;;;8.50;1.73;;;;;;;8.09;96.08;100859.84;5222482;28;20064;-78
2023/02/18 04:15:36;;;;;;;12.15;1.85;;;;;;;8.18;94.57;100852.72;5220146;28;20087;-78
2023/02/18 04:18:06;;;;;;;11.75;2.13;;;;;;;8.11;95.14;100852.84;5221825;28;20036;-79
2023/02/18 04:20:36;;;;;;;11.80;1.92;;;;;;;8.13;96.08;100853.69;5221904;28;20029;-78
2023/02/18 04:23:06;;;;;;;12.75;2.10;;;;;;;8.23;96.15;100858.69;5221746;28;20457;-79
2023/02/18 04:25:37;;;;;;;13.63;2.47;;;;;;;8.13;97.12;100849.34;5221936;28;20132;-78
2023/02/18 04:28:10;;;;;;;10.27;2.30;;;;;;;8.08;97.40;100853.75;5221050;28;20021;-79
2023/02/18 04:30:40;;;;;;;10.15;2.00;;;;;;;8.06;99.26;100859.91;5216892;28;20501;-78
2023/02/18 04:33:10;;;;;;;14.93;2.55;;;;;;;8.17;99.34;100853.59;5220531;28;20064;-75
2023/02/18 04:35:41;;;;;;;9.38;2.40;;;;;;;7.99;100.00;100853.97;5221612;28;20025;-78
2023/02/18 04:38:11;;;;;;;11.93;2.42;;;;;;;8.08;100.00;100852.94;5222072;28;20040;-79
2023/02/18 04:40:41;;;;;;;11.35;2.30;;;;;;;8.10;100.00;100854.63;5221154;28;20036;-78
2023/02/18 04:43:12;;;;;;;11.07;2.63;;;;;;;7.97;100.00;100854.88;5221905;28;20068;-77
2023/02/18 04:45:42;;;;;;;12.57;3.10;;;;;;;7.94;100.00;100855.81;5221131;28;20041;-78
2023/02/18 04:48:12;;;;;;;13.02;3.30;;;;;;;7.91;100.00;100849.81;5221520;28;20083;-79
2023/02/18 04:50:44;;;;;;;12.95;2.70;;;;;;;7.92;100.00;100854.13;5220968;28;20052;-79
2023/02/18 04:53:14;;;;;;;15.02;3.28;;;;;;;7.96;100.00;100848.84;5221333;28;20075;-79
2023/02/18 04:55:49;;;;;;;16.75;3.42;;;;;;;7.96;100.00;100848.84;5221710;28;20036;-78
2023/02/18 04:58:20;;;;;;;15.95;3.42;;;;;;;7.90;100.00;100843.75;5220238;28;20049;-79
2023/02/18 05:00:52;;;;;;;11.38;3.45;;;;;;;8.00;100.00;100834.00;5221378;28;20517;-78
2023/02/18 05:03:23;;;;;;;14.73;3.78;;;;;;;7.89;100.00;100846.38;5221196;28;20021;-79
2023/02/18 05:05:53;;;;;;;12.65;3.90;;;;;;;7.95;100.00;100833.25;5221217;28;20039;-79
2023/02/18 05:08:24;;;;;;;14.13;4.32;;;;;;;7.83;100.00;100831.75;5219997;28;20441;-78
2023/02/18 05:10:54;;;;;;;15.70;4.45;;;;;;;7.82;100.00;100829.16;5219893;28;20052;-79
2023/02/18 05:13:24;;;;;;;16.20;5.05;;;;;;;7.85;100.00;100835.19;5221662;28;20067;-79
2023/02/18 05:15:55;;;;;;;17.35;4.95;;;;;;;7.90;100.00;100827.28;5220555;28;20037;-79
2023/02/18 05:18:25;;;;;;;17.52;5.32;;;;;;;7.87;100.00;100812.59;5221205;28;20029;-79
2023/02/18 05:20:55;;;;;;;24.02;6.18;;;;;;;7.82;100.00;100806.63;5220981;28;20035;-79
2023/02/18 05:23:26;;;;;;;17.88;5.90;;;;;;;7.75;100.00;100802.47;5219535;28;20055;-78
2023/02/18 05:25:56;;;;;;;18.67;6.97;;;;;;;7.66;100.00;100792.22;5219113;28;20488;-78
2023/02/18 05:28:26;;;;;;;21.98;7.20;;;;;;;7.61;100.00;100783.66;5220775;28;20097;-79
2023/02/18 05:30:57;;;;;;;20.85;7.88;;;;;;;7.49;100.00;100776.09;5220590;28;20481;-78
2023/02/18 05:33:27;;;;;;;18.55;7.63;;;;;;;7.49;100.00;100786.50;5217654;28;20437;-79
2023/02/18 05:35:58;;;;;;;20.25;8.52;;;;;;;7.58;100.00;100778.53;5219987;28;20033;-79
2023/02/18 05:38:28;;;;;;;23.67;8.63;;;;;;;7.42;100.00;100777.13;5220938;28;20020;-79
2023/02/18 05:40:58;;;;;;;25.15;8.82;;;;;;;7.43;100.00;100773.63;5220429;28;20406;-79
2023/02/18 05:43:29;;;;;;;25.05;9.05;;;;;;;7.38;100.00;100764.22;5220710;28;20071;-79
2023/02/18 05:45:59;;;;;;;27.60;9.10;;;;;;;7.53;100.00;100754.34;5220376;28;20033;-78
2023/02/18 05:48:29;;;;;;;16.75;8.43;;;;;;;7.49;100.00;100746.66;5220271;28;20120;-79
2023/02/18 05:51:00;;;;;;;23.95;9.23;;;;;;;7.40;100.00;100752.91;5220763;28;20052;-78
2023/02/18 05:53:31;;;;;;;21.00;10.50;;;;;;;7.37;100.00;100758.13;5220862;28;20380;-78
2023/02/18 05:56:01;;;;;;;25.00;11.15;;;;;;;7.45;100.00;100751.06;5219121;28;20056;-79
2023/02/18 05:58:31;;;;;;;24.63;11.23;;;;;;;7.45;100.00;100756.25;5218892;28;20102;-78
2023/02/18 06:01:02;;;;;;;28.92;12.02;;;;;;;7.41;100.00;100743.34;5219464;28;20051;-77
2023/02/18 06:03:32;;;;;;;29.75;11.38;;;;;;;7.54;100.00;100745.66;5219891;28;20032;-79
2023/02/18 06:06:03;;;;;;;23.33;10.30;;;;;;;7.51;100.00;100734.47;5218946;28;20139;-79
2023/02/18 06:08:34;;;;;;;24.75;11.45;;;;;;;7.50;100.00;100738.81;5218703;28;20036;-78
2023/02/18 06:11:04;;;;;;;29.27;11.75;;;;;;;7.50;100.00;100733.59;5219613;28;20478;-79
2023/02/18 06:13:35;;;;;;;32.13;13.18;;;;;;;7.44;100.00;100719.88;5218427;28;20036;-78
2023/02/18 06:16:05;;;;;;;26.23;12.20;;;;;;;7.45;100.00;100712.06;5218964;28;20028;-78
2023/02/18 06:18:35;;;;;;;22.30;11.32;;;;;;;7.44;100.00;100707.75;5219042;28;20025;-78
2023/02/18 06:21:06;;;;;;;24.13;12.35;;;;;;;7.47;100.00;100707.69;5217672;28;20027;-79
2023/02/18 06:23:36;;;;;;;26.13;12.23;;;;;;;7.64;100.00;100702.09;5218534;28;20411;-78
2023/02/18 06:26:07;;;;;;;24.35;11.77;;;;;;;7.56;100.00;100697.06;5217266;28;20506;-78
2023/02/18 06:28:37;;;;;;;28.00;12.77;;;;;;;7.49;100.00;100703.28;5218933;28;20025;-78
2023/02/18 06:31:07;;;;;;;25.77;13.57;;;;;;;7.47;100.00;100696.41;5219365;28;20039;-78
2023/02/18 06:33:38;;;;;;;27.50;13.02;;;;;;;7.46;100.00;100703.38;5218976;28;20101;-78
2023/02/18 06:36:11;;;;;;;22.85;12.27;;;;;;;7.59;100.00;100702.22;5219560;28;20029;-78
2023/02/18 06:38:43;;;;;;;27.23;12.43;;;;;;;7.64;100.00;100695.16;5215083;28;20040;-78
2023/02/18 06:41:13;;;;;;;19.42;11.55;;;;;;;7.62;100.00;100691.75;5217743;28;20426;-78
2023/02/18 06:43:43;;;;;;;26.75;12.50;;;;;;;7.73;100.00;100676.75;5219170;28;20078;-77
2023/02/18 06:46:14;;;;;;;25.58;11.30;;;;;;;7.74;100.00;100678.44;5219284;28;20474;-78
2023/02/18 06:48:44;;;;;;;24.23;11.38;;;;;;;7.64;100.00;100671.75;5223582;28;20021;-79
2023/02/18 06:51:15;;;;;;;23.90;11.82;;;;;;;7.69;100.00;100659.50;5224463;28;20066;-79
2023/02/18 06:53:45;;;;;;;26.77;11.93;;;;;;;7.79;100.00;100653.22;5221612;28;20059;-78
2023/02/18 06:56:16;;;;;;;24.92;11.60;;;;;;;7.67;100.00;100650.03;5224091;28;20020;-78
2023/02/18 06:58:46;;;;;;;21.95;10.90;;;;;;;7.66;100.00;100640.53;5223099;28;20028;-79
2023/02/18 07:01:16;;;;;;;20.08;11.25;;;;;;;7.77;100.00;100630.72;5221784;28;20025;-78
2023/02/18 07:03:46;;;;;;;21.42;10.35;;;;;;;7.77;100.00;100638.50;5223804;28;20029;-78
2023/02/18 07:06:17;;;;;;;20.45;10.13;;;;;;;7.85;100.00;100628.81;5222627;28;20099;-79
2023/02/18 07:08:47;;;;;;;22.50;11.00;;;;;;;7.76;100.00;100623.81;5222709;28;20021;-78
2023/02/18 07:11:17;;;;;;;21.95;11.10;;;;;;;7.73;100.00;100605.66;5222565;28;20116;-78
2023/02/18 07:13:48;;;;;;;19.63;10.27;;;;;;;7.76;100.00;100601.25;5222520;28;20460;-77
2023/02/18 07:16:18;;;;;;;20.85;10.18;;;;;;;7.78;100.00;100602.06;5223066;28;20049;-78
2023/02/18 07:18:48;;;;;;;21.95;10.98;;;;;;;7.75;100.00;100602.16;5222387;28;20025;-77
2023/02/18 07:21:18;;;;;;;22.38;10.98;;;;;;;7.68;100.00;100600.56;5221142;28;20035;-79
2023/02/18 07:23:50;;;;;;;20.83;11.55;;;;;;;7.74;100.00;100592.63;5221909;28;20072;-79
2023/02/18 07:26:20;;;;;;;23.98;11.48;;;;;;;7.71;100.00;100590.09;5222127;28;20102;-78
2023/02/18 07:28:50;;;;;;;27.60;11.85;;;;;;;7.73;100.00;100579.66;5221743;28;20049;-77
2023/02/18 07:31:21;;;;;;;26.98;13.00;;;;;;;7.65;100.00;100576.38;5223540;28;20071;-75
2023/02/18 07:33:51;;;;;;;31.67;13.60;;;;;;;7.53;100.00;100581.88;5222099;28;20040;-78
2023/02/18 07:36:21;;;;;;;26.60;13.73;;;;;;;7.57;100.00;100568.78;5223317;28;20021;-79
2023/02/18 07:38:52;;;;;;;26.98;13.27;;;;;;;7.62;100.00;100556.50;5222209;28;20017;-78
2023/02/18 07:41:22;;;;;;;27.98;13.25;;;;;;;7.50;100.00;100567.19;5222356;28;20025;-78
2023/02/18 07:43:53;;;;;;;26.50;13.90;;;;;;;7.57;100.00;100560.97;5221285;28;20067;-78
2023/02/18 07:46:23;;;;;;;29.77;13.65;;;;;;;7.59;100.00;100561.78;5219463;28;20294;-78
2023/02/18 07:48:53;;;;;;;26.15;14.85;;;;;;;7.58;100.00;100559.22;5220871;28;20029;-79
2023/02/18 07:51:24;;;;;;;30.02;16.05;;;;;;;7.58;100.00;100554.00;5220424;28;20040;-80
2023/02/18 07:53:54;;;;;;;31.13;14.85;;;;;;;7.59;100.00;100556.59;5220747;28;20110;-78
2023/02/18 07:56:24;;;;;;;28.05;14.75;;;;;;;7.68;100.00;100545.13;5223344;28;20604;-78
2023/02/18 07:58:55;;;;;;;27.45;14.30;;;;;;;7.65;100.00;100540.84;5222380;28;20025;-80
2023/02/18 08:01:25;;;;;;;27.45;15.07;;;;;;;7.74;100.00;100544.94;5222827;28;20029;-80
2023/02/18 08:03:55;;;;;;;26.58;14.43;;;;;;;7.74;100.00;100534.56;5221516;28;20033;-80
2023/02/18 08:06:44;;;;;;;24.88;13.70;;;;;;;7.72;100.00;100528.53;5222361;28;20486;-78
2023/02/18 08:09:16;;;;;;;24.08;13.27;;;;;;;7.73;100.00;100512.03;5222241;28;20029;-78
2023/02/18 08:11:46;;;;;;;23.52;13.40;;;;;;;7.82;100.00;100507.44;5222929;28;20526;-78
2023/02/18 08:14:16;;;;;;;25.92;13.00;;;;;;;7.97;100.00;100495.78;5222073;28;20162;-78
2023/02/18 08:16:47;;;;;;;23.83;12.65;;;;;;;7.99;100.00;100492.25;5219744;28;20040;-78
2023/02/18 08:19:17;;;;;;;21.73;12.25;;;;;;;7.91;100.00;100496.78;5222435;28;20036;-78
2023/02/18 08:21:47;;;;;;;24.23;12.45;;;;;;;7.93;100.00;100495.03;5223147;28;20049;-78
2023/02/18 08:24:17;;;;;;;20.25;11.30;;;;;;;8.17;100.00;100488.28;5222575;28;20340;-79
2023/02/18 08:26:48;;;;;;;19.73;11.00;;;;;;;8.13;100.00;100482.34;5229552;22;20045;-70
2023/02/18 08:29:18;;;;;;;16.15;9.50;;;;;;;8.27;100.00;100472.44;5205151;28;20498;-71
2023/02/18 08:31:48;;;;;;;15.95;9.80;;;;;;;8.29;100.00;100477.59;5202199;28;20029;-72
2023/02/18 08:34:19;;;;;;;17.33;9.90;;;;;;;8.41;100.00;100472.03;5211917;28;20029;-72
2023/02/18 08:36:49;;;;;;;15.75;9.15;;;;;;;8.42;100.00;100461.56;5203647;28;20048;-71
2023/02/18 08:39:19;;;;;;;15.65;8.57;;;;;;;8.67;100.00;100464.31;5188644;28;20569;-71
2023/02/18 08:41:49;;;;;;;16.30;9.02;;;;;;;8.70;100.00;100464.25;5203900;28;20052;-71
2023/02/18 08:44:20;;;;;;;15.80;8.85;;;;;;;8.71;100.00;100461.56;5203240;28;20040;-72
2023/02/18 08:46:50;;;;;;;14.65;8.30;;;;;;;8.83;100.00;100456.00;5203975;28;20026;-71
2023/02/18 08:49:22;;;;;;;15.52;8.60;;;;;;;8.89;100.00;100455.81;5202741;28;20013;-72
2023/02/18 08:51:53;;;;;;;17.98;9.48;;;;;;;8.94;100.00;100447.84;5203291;28;20108;-72
2023/02/18 08:54:23;;;;;;;16.02;9.00;;;;;;;8.98;100.00;100450.31;5205399;28;20112;-71
2023/02/18 08:56:56;;;;;;;15.55;8.23;;;;;;;9.13;100.00;100439.41;5210048;28;20033;-71
2023/02/18 08:59:26;;;;;;;13.20;7.00;;;;;;;9.28;100.00;100436.31;5205031;28;20379;-71
2023/02/18 09:01:57;;;;;;;13.18;6.55;;;;;;;9.35;100.00;100419.56;5205186;28;20034;-72
2023/02/18 09:04:27;;;;;;;15.32;6.78;;;;;;;9.39;100.00;100416.81;5207228;28;20478;-71
2023/02/18 09:06:57;;;;;;;13.57;6.15;;;;;;;9.52;100.00;100415.47;5204136;28;20025;-71
2023/02/18 09:09:28;;;;;;;11.73;5.75;;;;;;;9.53;100.00;100404.16;5207099;28;20018;-71
2023/02/18 09:11:58;;;;;;;10.35;5.80;;;;;;;9.60;100.00;100413.47;5203885;28;20029;-70
2023/02/18 09:14:28;;;;;;;8.63;4.85;;;;;;;9.59;100.00;100408.28;5202635;28;20021;-71
2023/02/18 09:16:59;;;;;;;8.98;5.05;;;;;;;9.61;100.00;100406.47;5203100;28;20140;-71
2023/02/18 09:19:29;;;;;;;7.65;4.47;;;;;;;9.69;100.00;100409.69;5203141;28;20120;-72
2023/02/18 09:21:59;;;;;;;6.93;4.13;;;;;;;9.89;100.00;100412.44;5211842;28;20059;-71
2023/02/18 09:24:36;;;;;;;6.22;3.40;;;;;;;9.92;100.00;100399.28;5207818;28;20120;-70
2023/02/18 09:27:07;;;;;;;7.13;3.28;;;;;;;9.83;100.00;100410.06;5211053;28;20260;-71
2023/02/18 09:29:39;;;;;;;5.00;3.35;;;;;;;9.87;100.00;100402.09;5203030;28;20222;-70
2023/02/18 09:32:11;;;;;;;5.07;2.80;;;;;;;9.94;100.00;100387.03;5201536;28;20055;-71
2023/02/18 09:34:41;;;;;;;3.38;2.20;;;;;;;9.98;100.00;100393.88;5201939;28;20103;-71
2023/02/18 09:37:12;;;;;;;3.03;1.90;;;;;;;10.02;100.00;100392.88;5189534;28;20120;-72
2023/02/18 09:39:42;;;;;;;3.90;1.80;;;;;;;10.01;100.00;100383.31;5201605;28;20029;-71
2023/02/18 09:42:17;;;;;;;6.18;1.85;;;;;;;10.11;100.00;100369.03;5201993;28;20033;-71
2023/02/18 09:44:51;;;;;;;2.03;1.20;;;;;;;10.21;100.00;100367.78;5202069;28;20057;-70
2023/02/18 09:47:33;;;;;;;3.67;1.20;;;;;;;10.19;100.00;100361.78;5196822;28;20029;-71
2023/02/18 09:50:19;;;;;;;2.10;1.00;;;;;;;10.22;100.00;100361.66;5202922;28;20053;-72
2023/02/18 09:52:49;;;;;;;1.50;0.60;;;;;;;10.35;100.00;100355.91;5203114;28;20025;-71
2023/02/18 09:55:37;;;;;;;0.65;0.65;;;;;;;10.44;100.00;100359.91;5201302;28;20040;-71
2023/02/18 09:58:17;;;;;;;7.00;3.67;;;;;;;10.50;100.00;100359.69;5202019;28;20037;-71
2023/02/18 10:00:53;;;;;;;0.98;0.55;;;;;;;10.59;100.00;100341.91;5199966;28;20030;-72
2023/02/18 10:03:25;;;;;;;2.90;0.65;;;;;;;10.67;100.00;100352.91;5186395;28;20090;-71
2023/02/18 10:06:05;;;;;;;0.68;0.55;;;;;;;10.69;100.00;100345.00;5200495;28;20033;-71
2023/02/18 10:08:41;;;;;;;1.35;0.50;;;;;;;10.75;100.00;100344.75;5200229;28;20021;-71
2023/02/18 10:11:20;;;;;;;0.70;0.50;;;;;;;10.75;100.00;100344.75;5200873;28;20029;-71
2023/02/18 10:13:52;;;;;;;2.13;0.50;;;;;;;10.79;100.00;100344.56;5200444;28;20030;-74
2023/02/18 10:16:24;;;;;;;1.80;0.55;;;;;;;10.78;100.00;100334.16;5199195;28;20017;-72
2023/02/18 10:19:03;;;;;;;12.77;2.33;;;;;;;10.90;100.00;100345.00;5199607;28;20033;-73
2023/02/18 10:21:35;;;;;;;219.00;23.80;;;;;;;11.04;100.00;100330.44;5182442;28;20025;-73
2023/02/18 10:24:14;;;;;;;68.93;8.10;;;;;;;11.03;100.00;100336.59;5198751;28;20036;-73
2023/02/18 10:26:44;;;;;;;1.90;0.55;;;;;;;11.05;100.00;100342.59;5199197;28;20394;-72
2023/02/18 10:29:18;;;;;;;0.50;0.40;;;;;;;10.95;100.00;100331.72;5199535;28;20037;-73
2023/02/18 10:31:56;;;;;;;1.25;0.57;;;;;;;10.96;100.00;100336.03;5198934;28;20204;-73
2023/02/18 10:34:36;;;;;;;1.38;0.50;;;;;;;11.00;100.00;100325.41;5199486;28;20499;-73
2023/02/18 10:37:23;;;;;;;1.05;0.50;;;;;;;11.03;100.00;100344.44;5199010;28;20522;-73
2023/02/18 10:40:09;;;;;;;5.30;1.30;;;;;;;10.98;100.00;100331.59;5197744;28;20044;-72
2023/02/18 10:43:04;;;;;;;1.15;0.75;;;;;;;11.02;100.00;100341.03;5198980;28;20116;-73
2023/02/18 10:46:05;;;;;;;1.88;0.70;;;;;;;11.03;100.00;100333.09;5197886;28;20171;-72
2023/02/18 10:48:55;;;;;;;1.00;0.60;;;;;;;11.05;100.00;100332.13;5156834;28;20073;-73
2023/02/18 10:51:30;;;;;;;1.23;0.73;;;;;;;11.01;100.00;100323.66;5179890;28;20487;-73
2023/02/18 10:54:00;;;;;;;2.70;1.48;;;;;;;10.94;100.00;100312.59;5198747;28;20038;-72
2023/02/18 10:56:42;;;;;;;1.77;0.85;;;;;;;10.96;100.00;100317.72;5196386;28;20113;-73
2023/02/18 10:59:30;;;;;;;2.42;1.05;;;;;;;10.94;100.00;100309.97;5197607;28;20025;-73
2023/02/18 11:02:14;;;;;;;1.80;1.00;;;;;;;11.08;100.00;100290.16;5198097;28;20044;-74
2023/02/18 11:04:45;;;;;;;1.65;0.93;;;;;;;11.03;100.00;100305.22;5197896;28;20033;-72
2023/02/18 11:07:24;;;;;;;1.35;1.10;;;;;;;11.08;100.00;100305.03;5197568;28;20040;-73
2023/02/18 11:09:57;;;;;;;1.58;1.00;;;;;;;11.11;100.00;100294.44;5199024;28;20042;-73
2023/02/18 11:12:34;;;;;;;1.40;0.90;;;;;;;11.17;100.00;100292.41;5182347;28;20391;-72
2023/02/18 11:15:13;;;;;;;1.30;0.90;;;;;;;11.20;100.00;100307.97;5198161;28;20087;-72
2023/02/18 11:17:47;;;;;;;1.55;1.20;;;;;;;11.17;100.00;100286.31;5198107;28;20022;-73
2023/02/18 11:20:36;;;;;;;5.38;1.20;;;;;;;11.25;100.00;100290.31;5197804;28;20034;-73
2023/02/18 11:23:06;;;;;;;2.03;1.20;;;;;;;11.13;100.00;100298.66;5198316;28;20041;-72
2023/02/18 11:25:39;;;;;;;3.40;1.57;;;;;;;11.16;100.00;100292.47;5198523;28;20017;-72
2023/02/18 11:28:41;;;;;;;2.85;1.67;;;;;;;11.14;100.00;100297.75;5198739;28;20279;-72
2023/02/18 11:31:20;;;;;;;1.60;1.15;;;;;;;11.11;100.00;100290.03;5198577;28;20061;-73
2023/02/18 11:33:55;;;;;;;2.08;1.50;;;;;;;11.11;100.00;100297.88;5185997;28;20388;-73
2023/02/18 11:36:31;;;;;;;1.80;1.23;;;;;;;11.17;100.00;100302.00;5201969;28;20471;-73
2023/02/18 11:39:06;;;;;;;2.40;1.83;;;;;;;11.11;100.00;100287.41;5201623;28;20048;-74
2023/02/18 11:41:39;;;;;;;3.22;1.98;;;;;;;11.03;100.00;100297.38;5202010;28;20068;-73
2023/02/18 11:44:22;;;;;;;2.10;1.58;;;;;;;10.97;100.00;100288.91;5201764;28;20057;-72
2023/02/18 11:47:11;;;;;;;3.13;1.67;;;;;;;10.95;100.00;100287.28;5202314;28;20113;-73
2023/02/18 11:49:43;;;;;;;2.10;1.38;;;;;;;10.91;100.00;100285.72;5198995;28;20025;-73
2023/02/18 11:52:16;;;;;;;1.90;1.60;;;;;;;10.89;100.00;100295.38;5185899;28;20699;-73